Messwerte Aurangabad

Temperatur

Temperatur
°C
1618943400 0.00 0.00 30
1618947000 1.00 1.00
1618950600 2.00 2.00
1618954200 3.00 3.00 28
1618957800 4.00 4.00
1618961400 5.00 5.00
1618965000 6.00 6.00 25
1618968600 7.00 7.00 25
1618972200 8.00 8.00 25
1618975800 9.00 9.00 28
1618979400 10.00 10.00 30
1618983000 11.00 11.00 33
1618986600 12.00 12.00 34
1618990200 13.00 13.00 36
1618993800 14.00 14.00 36
1618997400 15.00 15.00 37
1619001000 16.00 16.00 36
1619004600 17.00 17.00 36
1619008200 18.00 18.00 33
1619011800 19.00 19.00 33
1619015400 20.00 20.00
1619019000 21.00 21.00 30
1619022600 22.00 22.00
1619026200 23.00 23.00

Wir danken unserem Partner:

Aktuellste Messwerte

Wettercharakter
Wetter: meist klar
Temperatur
27 °C
Feuchtigkeit
45 %
Wind
0 km/h, -
Luftdruck
1014 hPa
Messzeit: 21. April 2021, 23.30Datenquelle: METAR

Weitere Messstationen in der Nähe

Messstation Temperatur Entfernung
Mumbai 29 °C 279 km
Bombay - 281 km
Indore - 322 km
Nagpur 28 °C 405 km
Hyderabad 27 °C 419 km
Bhopal 26 °C 431 km
Ahmedabad 32 °C 458 km

Wind

Windrichtung Böen Mittelwind
° km/h km/h
1618943400 0.00 23.00 - 0.00 320° 5
1618947000 1.00 0.00 - 1.00
1618950600 2.00 1.00 - 2.00
1618954200 3.00 2.00 - 3.00 0
1618957800 4.00 3.00 - 4.00
1618961400 5.00 4.00 - 5.00
1618965000 6.00 5.00 - 6.00 0
1618968600 7.00 6.00 - 7.00 0
1618972200 8.00 7.00 - 8.00 0
1618975800 9.00 8.00 - 9.00 0
1618979400 10.00 9.00 - 10.00 0
1618983000 11.00 10.00 - 11.00 340° 10
1618986600 12.00 11.00 - 12.00 320° 5
1618990200 13.00 12.00 - 13.00 360° 5
1618993800 14.00 13.00 - 14.00 360° 10
1618997400 15.00 14.00 - 15.00 50° 5
1619001000 16.00 15.00 - 16.00 0
1619004600 17.00 16.00 - 17.00 290° 5
1619008200 18.00 17.00 - 18.00 5
1619011800 19.00 18.00 - 19.00 0
1619015400 20.00 19.00 - 20.00
1619019000 21.00 20.00 - 21.00 0
1619022600 22.00 21.00 - 22.00
1619026200 23.00 22.00 - 23.00

Ihre Wetterstation

Fehlt Ihre Wetterstation auf unserem Portal?

Schreiben Sie an network@meteonews.ch

Klima

Wann ist es am wärmsten? Wann regnet es am wenigsten? Unsere Klimadaten geben Auskunft.